Time;durP1;ratioP1;P1;durP2;ratioP2;P2;SDS_P1;SDS_P2;PMS_P1;PMS_P2;Temp;Humidity;BMP_temperature;BMP_pressure;BME280_temperature;BME280_humidity;BME280_pressure;Samples;Min_cycle;Max_cycle;Signal;HPM_P1;HPM_P2
2022/01/15 00:01:43;;;;;;;203.07;79.25;;;;;;;;;;5038400;28;20532;-54
2022/01/15 00:04:09;;;;;;;207.85;81.30;;;;;;;;;;5041122;28;20051;-53
2022/01/15 00:06:35;;;;;;;191.93;78.60;;;;;;;;;;5038778;28;20797;-53
2022/01/15 00:09:01;;;;;;;202.63;78.38;;;;;;;;;;5037157;28;20029;-53
2022/01/15 00:11:26;;;;;;;218.95;78.88;;;;;;;;;;5039027;28;20658;-52
2022/01/15 00:13:57;;;;;;;189.88;76.75;;;;;;;;;;5038946;28;20029;-51
2022/01/15 00:16:32;;;;;;;202.20;75.60;;;;;;;;;;5040392;28;20025;-53
2022/01/15 00:19:09;;;;;;;173.70;65.95;;;;;;;;;;5037545;28;20443;-51
2022/01/15 00:21:35;;;;;;;187.25;71.90;;;;;;;;;;5040849;28;20052;-53
2022/01/15 00:24:01;;;;;;;197.45;75.30;;;;;;;;;;5040215;28;20138;-53
2022/01/15 00:26:26;;;;;;;206.48;78.45;;;;;;;;;;5033993;28;20044;-52
2022/01/15 00:28:52;;;;;;;227.85;83.95;;;;;;;;;;5038799;28;20029;-53
2022/01/15 00:31:18;;;;;;;161.02;65.75;;;;;;;;;;5035578;28;20032;-50
2022/01/15 00:33:44;;;;;;;179.77;68.93;;;;;;;;;;5043318;28;20036;-54
2022/01/15 00:36:10;;;;;;;189.55;73.50;;;;;;;;;;5072352;28;20057;-52
2022/01/15 00:38:36;;;;;;;168.88;60.10;;;;;;;;;;5039922;28;20040;-53
2022/01/15 00:41:01;;;;;;;181.48;69.22;;;;;;;;;;5038967;28;20120;-54
2022/01/15 00:43:27;;;;;;;197.63;72.43;;;;;;;;;;5043663;28;20115;-53
2022/01/15 00:45:58;;;;;;;189.68;67.85;;;;;;;;;;5040374;28;20515;-50
2022/01/15 00:48:24;;;;;;;179.35;70.82;;;;;;;;;;5039189;28;20103;-52
2022/01/15 00:50:50;;;;;;;181.23;68.25;;;;;;;;;;5040201;28;20055;-53
2022/01/15 00:53:15;;;;;;;171.15;66.40;;;;;;;;;;5052896;28;20033;-53
2022/01/15 00:55:41;;;;;;;181.75;67.55;;;;;;;;;;5042050;28;20112;-53
2022/01/15 00:58:07;;;;;;;160.85;61.40;;;;;;;;;;5040465;28;20485;-53
2022/01/15 01:00:32;;;;;;;150.38;56.47;;;;;;;;;;5039271;28;20523;-52
2022/01/15 01:02:58;;;;;;;174.93;64.00;;;;;;;;;;5036142;28;20191;-50
2022/01/15 01:05:23;;;;;;;163.82;60.72;;;;;;;;;;5034758;28;20391;-50
2022/01/15 01:07:49;;;;;;;150.95;60.92;;;;;;;;;;5037873;28;20040;-51
2022/01/15 01:23:34;;;;;;;153.63;57.60;;;;;;;;;;5042239;28;20090;-50
2022/01/15 01:26:22;;;;;;;142.00;51.78;;;;;;;;;;5035364;28;20033;-53
2022/01/15 01:28:55;;;;;;;137.05;53.95;;;;;;;;;;5036043;28;20033;-50
2022/01/15 01:31:26;;;;;;;140.57;54.53;;;;;;;;;;5036897;28;20491;-50
2022/01/15 01:33:56;;;;;;;139.63;55.05;;;;;;;;;;5036368;28;20053;-53
2022/01/15 01:36:37;;;;;;;158.82;54.65;;;;;;;;;;5032668;28;20039;-53
2022/01/15 01:39:09;;;;;;;143.63;55.75;;;;;;;;;;5038569;28;20102;-53
2022/01/15 01:41:37;;;;;;;151.10;54.47;;;;;;;;;;5040003;28;20061;-53
2022/01/15 01:44:04;;;;;;;145.18;52.80;;;;;;;;;;5036923;28;20423;-54
2022/01/15 01:46:52;;;;;;;136.93;53.97;;;;;;;;;;5036757;28;20037;-53
2022/01/15 01:49:19;;;;;;;143.48;52.45;;;;;;;;;;5034844;28;20500;-54
2022/01/15 01:51:45;;;;;;;142.63;55.30;;;;;;;;;;5038612;28;20044;-53
2022/01/15 01:54:16;;;;;;;145.23;54.85;;;;;;;;;;5040000;28;20126;-53
2022/01/15 01:56:41;;;;;;;152.95;53.20;;;;;;;;;;5034916;28;20025;-54
2022/01/15 01:59:08;;;;;;;154.35;55.83;;;;;;;;;;5034588;28;20044;-50
2022/01/15 02:01:34;;;;;;;140.45;53.17;;;;;;;;;;5037883;28;20515;-53
2022/01/15 02:04:00;;;;;;;169.65;56.05;;;;;;;;;;5037329;28;20025;-53
2022/01/15 02:06:25;;;;;;;141.93;53.35;;;;;;;;;;5050208;28;20039;-51
2022/01/15 02:08:51;;;;;;;151.35;51.28;;;;;;;;;;5037951;28;20040;-50
2022/01/15 02:11:17;;;;;;;155.57;55.97;;;;;;;;;;5036138;28;20029;-53
2022/01/15 02:13:45;;;;;;;143.77;54.10;;;;;;;;;;5037772;28;20507;-53
2022/01/15 02:16:13;;;;;;;131.15;52.08;;;;;;;;;;5042041;28;20017;-51
2022/01/15 02:18:39;;;;;;;154.80;54.90;;;;;;;;;;5035452;28;20037;-50
2022/01/15 02:23:34;;;;;;;130.27;47.85;;;;;;;;;;5035707;28;20169;-53
2022/01/15 02:26:05;;;;;;;140.82;49.30;;;;;;;;;;5038001;28;20035;-51
2022/01/15 02:28:36;;;;;;;139.65;47.97;;;;;;;;;;5032904;28;20111;-50
2022/01/15 02:31:08;;;;;;;146.18;47.20;;;;;;;;;;5032023;28;20646;-51
2022/01/15 02:33:34;;;;;;;140.00;47.67;;;;;;;;;;5039744;28;20100;-53
2022/01/15 02:36:02;;;;;;;126.85;48.35;;;;;;;;;;5041422;28;20085;-53
2022/01/15 02:38:27;;;;;;;124.63;47.85;;;;;;;;;;5035950;28;20079;-53
2022/01/15 02:40:53;;;;;;;122.10;47.08;;;;;;;;;;5039035;28;20504;-54
2022/01/15 02:43:27;;;;;;;118.07;45.75;;;;;;;;;;5034895;28;20096;-58
2022/01/15 02:45:56;;;;;;;114.20;43.42;;;;;;;;;;5034782;28;20052;-52
2022/01/15 02:48:25;;;;;;;122.78;43.42;;;;;;;;;;5037123;28;20055;-53
2022/01/15 02:50:51;;;;;;;116.85;45.85;;;;;;;;;;5031731;28;20037;-51
2022/01/15 02:53:17;;;;;;;116.15;43.38;;;;;;;;;;5034222;28;20497;-52
2022/01/15 02:55:48;;;;;;;107.65;42.63;;;;;;;;;;5035744;28;20060;-54
2022/01/15 02:58:15;;;;;;;112.63;44.30;;;;;;;;;;5038051;28;20037;-53
2022/01/15 03:00:41;;;;;;;144.13;47.55;;;;;;;;;;5033049;28;20448;-54
2022/01/15 03:03:06;;;;;;;129.30;46.95;;;;;;;;;;5035200;28;20056;-53
2022/01/15 03:05:32;;;;;;;125.40;47.78;;;;;;;;;;5040051;28;20036;-53
2022/01/15 03:07:58;;;;;;;117.53;48.28;;;;;;;;;;5035136;28;20052;-53
2022/01/15 03:10:24;;;;;;;128.65;48.25;;;;;;;;;;5034104;28;20068;-53
2022/01/15 03:12:51;;;;;;;124.15;47.88;;;;;;;;;;5039514;28;20056;-52
2022/01/15 03:15:19;;;;;;;133.52;49.80;;;;;;;;;;5038006;28;20043;-53
2022/01/15 03:17:46;;;;;;;127.78;49.47;;;;;;;;;;5040174;28;20036;-53
2022/01/15 03:20:13;;;;;;;130.02;48.75;;;;;;;;;;5038243;28;20518;-53
2022/01/15 03:22:39;;;;;;;132.88;50.00;;;;;;;;;;5042707;28;20082;-51
2022/01/15 03:25:05;;;;;;;126.30;48.83;;;;;;;;;;5039751;28;20072;-53
2022/01/15 03:27:31;;;;;;;122.60;46.47;;;;;;;;;;5041180;28;20551;-53
2022/01/15 03:29:56;;;;;;;119.53;46.50;;;;;;;;;;5036275;28;20068;-53
2022/01/15 03:32:22;;;;;;;126.65;48.35;;;;;;;;;;5040082;28;20043;-50
2022/01/15 03:34:49;;;;;;;121.88;46.13;;;;;;;;;;5039771;28;20109;-53
2022/01/15 03:37:15;;;;;;;123.68;49.22;;;;;;;;;;5035065;28;20590;-53
2022/01/15 03:39:41;;;;;;;120.68;46.80;;;;;;;;;;5038458;28;20032;-53
2022/01/15 03:42:12;;;;;;;134.00;47.55;;;;;;;;;;5044216;28;20033;-54
2022/01/15 03:44:46;;;;;;;115.00;46.15;;;;;;;;;;5042116;28;20222;-50
2022/01/15 03:47:12;;;;;;;124.85;46.05;;;;;;;;;;5037218;28;20044;-53
2022/01/15 03:49:39;;;;;;;122.75;45.97;;;;;;;;;;5040342;28;20377;-53
2022/01/15 03:52:06;;;;;;;104.30;43.90;;;;;;;;;;5038273;28;20029;-50
2022/01/15 03:54:33;;;;;;;108.70;41.97;;;;;;;;;;5037603;28;20036;-50
2022/01/15 03:56:59;;;;;;;114.75;43.78;;;;;;;;;;5040326;28;20032;-50
2022/01/15 03:59:25;;;;;;;115.47;44.92;;;;;;;;;;5037988;28;20029;-53
2022/01/15 04:01:50;;;;;;;113.18;44.25;;;;;;;;;;5039021;28;20427;-52
2022/01/15 04:04:17;;;;;;;135.30;46.22;;;;;;;;;;5037392;28;20404;-51
2022/01/15 04:06:42;;;;;;;112.55;45.88;;;;;;;;;;5042427;28;20036;-53
2022/01/15 04:09:09;;;;;;;105.45;45.03;;;;;;;;;;5033865;28;20033;-53
2022/01/15 04:11:34;;;;;;;121.47;45.20;;;;;;;;;;5041420;28;20098;-51
2022/01/15 04:14:00;;;;;;;110.15;42.08;;;;;;;;;;5035388;28;20052;-52
2022/01/15 04:16:28;;;;;;;111.00;43.80;;;;;;;;;;5038311;28;20029;-53
2022/01/15 04:18:54;;;;;;;131.20;45.53;;;;;;;;;;5038317;28;20504;-52
2022/01/15 04:21:19;;;;;;;120.43;44.15;;;;;;;;;;5043764;28;20136;-53
2022/01/15 04:23:45;;;;;;;99.68;42.13;;;;;;;;;;5041604;28;20132;-53
2022/01/15 04:26:10;;;;;;;118.07;42.78;;;;;;;;;;5038251;28;20114;-53
2022/01/15 04:28:36;;;;;;;102.35;40.33;;;;;;;;;;5035020;28;20104;-53
2022/01/15 04:31:05;;;;;;;94.53;37.47;;;;;;;;;;5039909;28;20047;-53
2022/01/15 04:33:34;;;;;;;101.30;38.42;;;;;;;;;;5037449;28;20504;-54
2022/01/15 04:35:59;;;;;;;86.80;30.88;;;;;;;;;;5044402;28;20027;-53
2022/01/15 04:38:25;;;;;;;89.85;37.42;;;;;;;;;;5038553;28;20037;-54
2022/01/15 04:40:51;;;;;;;102.35;37.95;;;;;;;;;;5036090;28;20084;-54
2022/01/15 04:43:16;;;;;;;111.50;35.17;;;;;;;;;;5043794;28;20030;-54
2022/01/15 04:45:41;;;;;;;90.63;36.58;;;;;;;;;;5040345;28;20058;-50
2022/01/15 04:48:07;;;;;;;89.43;35.72;;;;;;;;;;5037828;28;20440;-54
2022/01/15 04:50:33;;;;;;;86.78;33.50;;;;;;;;;;5039339;28;20033;-54
2022/01/15 04:52:59;;;;;;;103.80;34.95;;;;;;;;;;5039484;28;20040;-53
2022/01/15 04:55:24;;;;;;;84.85;30.40;;;;;;;;;;5037052;28;20045;-53
2022/01/15 04:57:50;;;;;;;89.70;30.27;;;;;;;;;;5032452;28;20041;-53
2022/01/15 05:00:17;;;;;;;80.75;30.30;;;;;;;;;;5039167;28;20045;-53
2022/01/15 05:02:43;;;;;;;90.25;30.65;;;;;;;;;;5036018;28;20122;-53
2022/01/15 05:05:09;;;;;;;90.63;31.75;;;;;;;;;;5041314;28;20083;-50
2022/01/15 05:07:35;;;;;;;78.85;28.80;;;;;;;;;;5038995;28;20030;-53
2022/01/15 05:10:00;;;;;;;75.65;26.85;;;;;;;;;;5032760;28;20093;-54
2022/01/15 05:12:32;;;;;;;90.45;30.65;;;;;;;;;;5038456;28;20053;-54
2022/01/15 05:14:58;;;;;;;102.78;30.50;;;;;;;;;;5038742;28;20438;-53
2022/01/15 05:17:24;;;;;;;88.03;31.25;;;;;;;;;;5033498;28;20541;-53
2022/01/15 05:19:50;;;;;;;87.35;30.05;;;;;;;;;;5042468;28;20045;-53
2022/01/15 05:22:16;;;;;;;99.93;32.17;;;;;;;;;;5037077;28;20104;-53
2022/01/15 05:24:41;;;;;;;85.32;29.20;;;;;;;;;;5036328;28;20255;-53
2022/01/15 05:27:07;;;;;;;95.53;29.67;;;;;;;;;;5036526;28;20094;-52
2022/01/15 05:29:32;;;;;;;92.30;32.35;;;;;;;;;;5038912;28;20037;-53
2022/01/15 05:31:58;;;;;;;86.28;29.33;;;;;;;;;;5040402;28;20072;-53
2022/01/15 05:34:23;;;;;;;86.07;30.65;;;;;;;;;;5036230;28;20040;-53
2022/01/15 05:36:49;;;;;;;90.32;32.35;;;;;;;;;;5039380;28;20068;-50
2022/01/15 05:39:14;;;;;;;89.45;32.72;;;;;;;;;;5038880;28;20056;-53
2022/01/15 05:41:40;;;;;;;84.20;32.78;;;;;;;;;;5034467;28;20041;-53
2022/01/15 05:44:05;;;;;;;93.50;32.30;;;;;;;;;;5032964;28;20068;-53
2022/01/15 05:46:33;;;;;;;94.35;33.08;;;;;;;;;;5038260;28;20041;-50
2022/01/15 05:49:00;;;;;;;100.68;34.22;;;;;;;;;;5036462;28;20127;-53
2022/01/15 05:51:29;;;;;;;107.40;36.20;;;;;;;;;;5038091;28;20268;-53
2022/01/15 05:53:56;;;;;;;105.35;35.88;;;;;;;;;;5033205;28;20040;-51
2022/01/15 05:56:21;;;;;;;120.13;40.08;;;;;;;;;;5036203;28;20303;-53
2022/01/15 05:58:47;;;;;;;103.53;35.97;;;;;;;;;;5034616;28;20075;-54
2022/01/15 06:01:12;;;;;;;122.18;39.38;;;;;;;;;;5035924;28;20068;-54
2022/01/15 06:03:38;;;;;;;110.22;38.25;;;;;;;;;;5037773;28;20083;-52
2022/01/15 06:06:03;;;;;;;110.45;40.08;;;;;;;;;;5036492;28;20179;-52
2022/01/15 06:08:29;;;;;;;119.32;42.88;;;;;;;;;;5036525;28;20082;-52
2022/01/15 06:10:54;;;;;;;125.32;42.97;;;;;;;;;;5035705;28;20037;-54
2022/01/15 06:13:20;;;;;;;127.78;43.85;;;;;;;;;;5033885;28;20451;-53
2022/01/15 06:15:45;;;;;;;131.68;43.78;;;;;;;;;;5035273;28;20029;-53
2022/01/15 06:18:11;;;;;;;119.78;42.03;;;;;;;;;;5050913;28;20026;-54
2022/01/15 06:20:36;;;;;;;143.02;46.60;;;;;;;;;;5035757;28;20508;-53
2022/01/15 06:23:02;;;;;;;132.88;43.03;;;;;;;;;;5034199;28;20108;-53
2022/01/15 06:25:28;;;;;;;122.20;44.60;;;;;;;;;;5032890;28;20028;-54
2022/01/15 06:27:53;;;;;;;153.43;47.17;;;;;;;;;;5038270;28;20021;-53
2022/01/15 06:30:19;;;;;;;126.75;42.65;;;;;;;;;;5037232;28;20086;-53
2022/01/15 06:32:44;;;;;;;150.80;45.45;;;;;;;;;;5034169;28;20067;-50
2022/01/15 06:35:13;;;;;;;126.28;41.03;;;;;;;;;;5038961;28;20152;-53
2022/01/15 06:37:40;;;;;;;144.73;43.00;;;;;;;;;;5037401;28;20021;-52
2022/01/15 06:40:06;;;;;;;139.98;46.80;;;;;;;;;;5035448;28;20483;-53
2022/01/15 06:42:32;;;;;;;154.57;46.95;;;;;;;;;;5031712;28;20853;-53
2022/01/15 06:44:58;;;;;;;141.77;45.75;;;;;;;;;;5018895;28;20183;-52
2022/01/15 06:47:25;;;;;;;142.02;46.60;;;;;;;;;;5039447;28;20104;-51
2022/01/15 06:49:50;;;;;;;152.30;47.47;;;;;;;;;;5038572;28;20115;-54
2022/01/15 06:52:16;;;;;;;144.85;43.75;;;;;;;;;;5031956;28;20131;-53
2022/01/15 06:54:41;;;;;;;137.18;41.28;;;;;;;;;;5038465;28;20037;-54
2022/01/15 06:57:07;;;;;;;136.63;41.65;;;;;;;;;;5071171;28;20043;-52
2022/01/15 06:59:32;;;;;;;143.50;42.42;;;;;;;;;;5035007;28;20117;-55
2022/01/15 07:01:58;;;;;;;149.95;44.13;;;;;;;;;;5032417;28;20053;-53
2022/01/15 07:04:23;;;;;;;148.77;44.38;;;;;;;;;;5032057;28;20508;-54
2022/01/15 07:06:49;;;;;;;141.52;43.90;;;;;;;;;;5038459;28;20079;-52
2022/01/15 07:09:14;;;;;;;149.23;44.05;;;;;;;;;;5032942;28;20032;-53
2022/01/15 07:11:40;;;;;;;147.30;43.42;;;;;;;;;;5039523;28;20035;-54
2022/01/15 07:14:05;;;;;;;156.63;42.42;;;;;;;;;;5035219;28;20554;-53
2022/01/15 07:16:31;;;;;;;151.00;44.85;;;;;;;;;;5042283;28;20078;-53
2022/01/15 07:18:57;;;;;;;166.30;48.47;;;;;;;;;;5033417;28;20029;-53
2022/01/15 07:21:22;;;;;;;160.82;43.35;;;;;;;;;;5040358;28;20231;-53
2022/01/15 07:23:48;;;;;;;180.57;46.42;;;;;;;;;;5039604;28;20523;-54
2022/01/15 07:26:14;;;;;;;153.52;44.40;;;;;;;;;;5037896;28;20575;-53
2022/01/15 07:28:39;;;;;;;175.45;45.70;;;;;;;;;;5035467;28;20037;-53
2022/01/15 07:31:05;;;;;;;174.15;43.97;;;;;;;;;;5037024;28;20046;-50
2022/01/15 07:33:30;;;;;;;173.00;47.13;;;;;;;;;;5041166;28;20553;-50
2022/01/15 07:35:56;;;;;;;180.05;46.78;;;;;;;;;;5022534;28;20025;-51
2022/01/15 07:38:22;;;;;;;179.48;47.42;;;;;;;;;;5037214;28;20341;-54
2022/01/15 07:40:48;;;;;;;170.45;44.83;;;;;;;;;;5032946;28;20037;-52
2022/01/15 07:43:14;;;;;;;155.70;42.95;;;;;;;;;;5039152;28;20064;-53
2022/01/15 07:45:40;;;;;;;179.57;44.65;;;;;;;;;;5036634;28;20055;-53
2022/01/15 07:48:05;;;;;;;156.43;41.53;;;;;;;;;;5034817;28;20041;-50
2022/01/15 07:50:31;;;;;;;153.55;40.50;;;;;;;;;;5037238;28;20201;-56
2022/01/15 07:52:57;;;;;;;155.32;37.22;;;;;;;;;;5036695;28;20349;-53
2022/01/15 07:55:24;;;;;;;138.63;36.70;;;;;;;;;;5035603;28;20103;-53
2022/01/15 07:57:51;;;;;;;154.52;38.00;;;;;;;;;;5039866;28;20130;-54
2022/01/15 08:00:17;;;;;;;162.70;37.90;;;;;;;;;;5035010;28;20036;-54
2022/01/15 08:02:43;;;;;;;160.52;37.95;;;;;;;;;;5039453;28;20032;-54
2022/01/15 08:05:11;;;;;;;165.10;37.58;;;;;;;;;;5040546;28;20106;-51
2022/01/15 08:07:37;;;;;;;174.23;39.58;;;;;;;;;;5035357;28;20056;-54
2022/01/15 08:10:06;;;;;;;167.27;37.17;;;;;;;;;;5034898;28;20470;-54
2022/01/15 08:12:32;;;;;;;147.10;34.67;;;;;;;;;;5039990;28;20439;-53
2022/01/15 08:14:58;;;;;;;150.40;35.85;;;;;;;;;;5039074;28;20057;-53
2022/01/15 08:17:23;;;;;;;142.70;33.72;;;;;;;;;;5038770;28;20053;-51
2022/01/15 08:19:49;;;;;;;158.73;34.75;;;;;;;;;;5040608;28;20036;-53
2022/01/15 08:22:14;;;;;;;134.48;31.33;;;;;;;;;;5039264;28;20067;-54
2022/01/15 08:24:40;;;;;;;132.63;32.38;;;;;;;;;;5037932;28;20033;-53
2022/01/15 08:27:06;;;;;;;144.40;32.67;;;;;;;;;;5041252;28;20430;-52
2022/01/15 08:29:31;;;;;;;138.50;32.83;;;;;;;;;;5038249;28;20151;-53
2022/01/15 08:31:57;;;;;;;147.32;33.97;;;;;;;;;;5039278;28;20420;-53
2022/01/15 08:34:22;;;;;;;153.27;34.05;;;;;;;;;;5030467;28;20408;-49
2022/01/15 08:36:49;;;;;;;148.63;33.58;;;;;;;;;;5030615;28;20470;-52
2022/01/15 08:39:15;;;;;;;142.85;33.70;;;;;;;;;;5039555;28;20114;-49
2022/01/15 08:41:43;;;;;;;154.38;32.75;;;;;;;;;;5040929;28;20040;-50
2022/01/15 08:44:09;;;;;;;157.40;34.42;;;;;;;;;;5037615;28;20115;-50
2022/01/15 08:46:35;;;;;;;147.43;33.15;;;;;;;;;;5040689;28;20041;-51
2022/01/15 08:49:00;;;;;;;165.27;35.72;;;;;;;;;;5042364;28;20033;-52
2022/01/15 08:51:26;;;;;;;169.70;34.88;;;;;;;;;;5046798;28;20132;-51
2022/01/15 08:53:51;;;;;;;154.02;33.67;;;;;;;;;;5039434;28;20570;-50
2022/01/15 08:56:17;;;;;;;174.35;36.65;;;;;;;;;;5057383;28;20520;-52
2022/01/15 08:58:43;;;;;;;171.65;36.38;;;;;;;;;;5042624;28;20052;-51
2022/01/15 09:01:13;;;;;;;190.77;40.55;;;;;;;;;;5040798;28;20504;-52
2022/01/15 09:03:40;;;;;;;175.70;40.15;;;;;;;;;;5045432;28;20518;-52
2022/01/15 09:06:06;;;;;;;176.93;42.78;;;;;;;;;;5043895;28;20044;-52
2022/01/15 09:08:32;;;;;;;208.77;43.05;;;;;;;;;;5040814;28;20476;-49
2022/01/15 09:10:57;;;;;;;229.75;49.63;;;;;;;;;;5039545;28;20037;-50
2022/01/15 09:13:23;;;;;;;219.40;47.75;;;;;;;;;;5041599;28;20037;-51
2022/01/15 09:15:51;;;;;;;220.13;46.28;;;;;;;;;;5041995;28;20128;-52
2022/01/15 09:18:19;;;;;;;215.15;46.50;;;;;;;;;;5045378;28;20029;-52
2022/01/15 09:20:45;;;;;;;183.05;42.90;;;;;;;;;;5043927;28;20098;-49
2022/01/15 09:23:12;;;;;;;186.50;43.80;;;;;;;;;;5044532;28;20067;-52
2022/01/15 09:25:38;;;;;;;207.07;45.75;;;;;;;;;;5044631;28;20028;-51
2022/01/15 09:30:49;;;;;;;190.77;43.85;;;;;;;;;;5040104;28;23125;-52
2022/01/15 09:33:15;;;;;;;203.05;46.78;;;;;;;;;;5040141;28;20547;-51
2022/01/15 09:35:40;;;;;;;173.30;43.78;;;;;;;;;;5043785;28;20367;-50
2022/01/15 09:38:07;;;;;;;202.13;44.50;;;;;;;;;;5032345;28;20492;-50
2022/01/15 09:40:32;;;;;;;193.50;45.40;;;;;;;;;;5032691;28;20036;-49
2022/01/15 09:42:58;;;;;;;192.20;42.72;;;;;;;;;;5035726;28;20036;-52
2022/01/15 09:45:24;;;;;;;196.50;43.50;;;;;;;;;;5033544;28;20076;-54
2022/01/15 09:47:57;;;;;;;185.55;44.00;;;;;;;;;;5033088;28;20117;-53
2022/01/15 09:50:24;;;;;;;188.65;43.90;;;;;;;;;;5027868;28;20025;-53
2022/01/15 09:52:50;;;;;;;208.60;48.83;;;;;;;;;;5036482;28;20052;-52
2022/01/15 09:55:15;;;;;;;219.90;46.22;;;;;;;;;;5028660;28;20561;-53
2022/01/15 09:57:41;;;;;;;194.60;45.65;;;;;;;;;;5034102;28;20021;-53
2022/01/15 10:00:15;;;;;;;201.07;45.38;;;;;;;;;;5037315;28;20341;-53
2022/01/15 10:02:42;;;;;;;167.52;43.97;;;;;;;;;;5041853;28;20135;-52
2022/01/15 10:05:09;;;;;;;181.07;44.25;;;;;;;;;;5038410;28;20116;-54
2022/01/15 10:07:35;;;;;;;176.27;43.70;;;;;;;;;;5040634;28;20052;-53
2022/01/15 10:10:15;;;;;;;166.90;43.75;;;;;;;;;;5034402;28;20144;-53
2022/01/15 10:12:43;;;;;;;169.50;43.30;;;;;;;;;;5029464;28;20048;-53
2022/01/15 10:15:09;;;;;;;172.93;43.22;;;;;;;;;;5032887;28;20026;-53
2022/01/15 10:17:37;;;;;;;189.57;45.33;;;;;;;;;;5031759;28;20040;-52
2022/01/15 10:20:12;;;;;;;163.70;42.03;;;;;;;;;;5028984;28;20066;-53
2022/01/15 10:22:40;;;;;;;184.57;43.60;;;;;;;;;;5029216;28;20596;-53
2022/01/15 10:25:20;;;;;;;177.25;47.20;;;;;;;;;;5038852;28;20404;-53
2022/01/15 10:27:49;;;;;;;177.10;43.40;;;;;;;;;;5036662;28;20035;-53
2022/01/15 10:30:16;;;;;;;176.48;42.22;;;;;;;;;;5038431;28;20530;-53
2022/01/15 10:33:03;;;;;;;169.45;41.45;;;;;;;;;;5036920;28;20128;-52
2022/01/15 10:35:42;;;;;;;168.07;41.00;;;;;;;;;;5039472;28;20044;-53
2022/01/15 10:38:10;;;;;;;172.52;41.22;;;;;;;;;;5038919;28;20046;-53
2022/01/15 10:40:53;;;;;;;186.25;43.38;;;;;;;;;;5035730;28;20045;-54
2022/01/15 10:43:20;;;;;;;170.48;41.08;;;;;;;;;;5053858;28;20068;-53
2022/01/15 10:46:07;;;;;;;157.07;40.72;;;;;;;;;;5036809;28;20049;-53
2022/01/15 10:48:37;;;;;;;172.00;38.97;;;;;;;;;;5032113;28;20029;-53
2022/01/15 10:51:08;;;;;;;172.45;40.05;;;;;;;;;;5028988;28;20029;-54
2022/01/15 10:53:39;;;;;;;150.73;38.55;;;;;;;;;;5034125;28;20053;-54
2022/01/15 10:56:06;;;;;;;144.55;39.20;;;;;;;;;;5035711;28;20061;-53
2022/01/15 10:58:31;;;;;;;147.82;37.65;;;;;;;;;;5042167;28;20214;-53
2022/01/15 11:00:57;;;;;;;159.63;39.00;;;;;;;;;;5037909;28;20110;-53
2022/01/15 11:03:25;;;;;;;149.38;37.70;;;;;;;;;;5039774;28;20029;-53
2022/01/15 11:05:52;;;;;;;139.18;35.92;;;;;;;;;;5038733;28;20037;-54
2022/01/15 11:08:22;;;;;;;145.80;36.35;;;;;;;;;;5033956;28;20990;-53
2022/01/15 11:10:49;;;;;;;124.18;34.90;;;;;;;;;;5033403;28;20126;-54
2022/01/15 11:13:18;;;;;;;139.45;35.80;;;;;;;;;;5040223;28;20025;-53
2022/01/15 11:15:47;;;;;;;122.72;33.40;;;;;;;;;;5035288;28;20029;-53
2022/01/15 11:18:18;;;;;;;140.35;37.45;;;;;;;;;;5029985;28;20036;-54
2022/01/15 11:20:46;;;;;;;150.75;40.70;;;;;;;;;;5033014;28;20021;-53
2022/01/15 11:23:13;;;;;;;150.77;41.00;;;;;;;;;;5035931;28;20112;-54
2022/01/15 11:25:39;;;;;;;140.77;40.63;;;;;;;;;;5070812;28;20029;-54
2022/01/15 11:28:05;;;;;;;137.05;40.63;;;;;;;;;;5036033;28;20033;-53
2022/01/15 11:30:32;;;;;;;140.70;42.42;;;;;;;;;;5036731;28;20091;-54
2022/01/15 11:32:59;;;;;;;166.63;42.58;;;;;;;;;;5039675;28;20560;-53
2022/01/15 11:35:44;;;;;;;158.82;40.60;;;;;;;;;;5038089;28;20044;-54
2022/01/15 11:38:10;;;;;;;151.02;39.53;;;;;;;;;;5036569;28;20121;-54
2022/01/15 11:40:39;;;;;;;139.30;38.85;;;;;;;;;;5034979;28;20123;-53
2022/01/15 11:43:41;;;;;;;94.70;29.80;;;;;;;;;;5039187;28;20037;-53
2022/01/15 11:46:38;;;;;;;70.82;23.42;;;;;;;;;;4999109;28;20544;-52
2022/01/15 11:49:40;;;;;;;48.08;17.27;;;;;;;;;;5039816;28;20174;-53
2022/01/15 11:52:06;;;;;;;45.88;15.27;;;;;;;;;;5036803;28;21121;-53
2022/01/15 11:54:32;;;;;;;40.67;14.45;;;;;;;;;;5041424;28;20033;-52
2022/01/15 11:57:02;;;;;;;33.38;14.43;;;;;;;;;;5033706;28;20020;-53
2022/01/15 11:59:30;;;;;;;32.42;13.23;;;;;;;;;;5040620;28;20021;-54
2022/01/15 12:02:06;;;;;;;26.52;9.70;;;;;;;;;;5039837;28;20098;-54
2022/01/15 12:04:37;;;;;;;28.17;10.95;;;;;;;;;;5035671;28;20029;-53
2022/01/15 12:07:05;;;;;;;24.15;10.57;;;;;;;;;;5034174;28;20500;-54
2022/01/15 12:09:31;;;;;;;23.80;9.32;;;;;;;;;;5038225;28;20052;-53
2022/01/15 12:11:56;;;;;;;28.25;9.73;;;;;;;;;;5042148;28;20140;-53
2022/01/15 12:14:47;;;;;;;28.25;9.65;;;;;;;;;;5040277;28;20045;-54
2022/01/15 12:17:31;;;;;;;22.00;9.25;;;;;;;;;;5037264;28;20111;-53
2022/01/15 12:20:00;;;;;;;28.83;10.00;;;;;;;;;;5042027;28;20033;-53
2022/01/15 12:22:40;;;;;;;23.63;8.57;;;;;;;;;;5040597;28;20463;-53
2022/01/15 12:25:07;;;;;;;24.48;8.88;;;;;;;;;;5043842;28;20029;-53
2022/01/15 12:27:35;;;;;;;21.45;8.90;;;;;;;;;;5036983;28;20025;-53
2022/01/15 12:30:13;;;;;;;17.17;7.97;;;;;;;;;;5042641;28;20055;-52
2022/01/15 12:32:41;;;;;;;26.58;7.20;;;;;;;;;;5038702;28;20037;-54
2022/01/15 12:35:18;;;;;;;20.65;7.88;;;;;;;;;;5037271;28;20051;-53
2022/01/15 12:38:15;;;;;;;16.60;6.90;;;;;;;;;;5038459;28;20571;-53
2022/01/15 12:40:54;;;;;;;14.95;6.63;;;;;;;;;;5039356;28;20064;-53
2022/01/15 12:43:31;;;;;;;10.52;4.20;;;;;;;;;;5040913;28;20029;-54
2022/01/15 12:45:57;;;;;;;17.70;4.25;;;;;;;;;;5039143;28;20049;-53
2022/01/15 12:48:29;;;;;;;8.45;3.45;;;;;;;;;;5042240;28;20069;-50
2022/01/15 12:51:05;;;;;;;6.72;3.47;;;;;;;;;;5043175;28;20049;-51
2022/01/15 12:53:35;;;;;;;7.75;3.55;;;;;;;;;;5041704;28;20082;-52
2022/01/15 12:56:06;;;;;;;12.52;4.13;;;;;;;;;;5036734;28;20036;-52
2022/01/15 12:58:31;;;;;;;8.93;3.97;;;;;;;;;;5032105;28;20037;-52
2022/01/15 13:00:57;;;;;;;11.55;3.97;;;;;;;;;;5062124;28;20060;-52
2022/01/15 13:03:25;;;;;;;11.32;3.67;;;;;;;;;;5042162;28;20029;-53
2022/01/15 13:05:53;;;;;;;11.70;4.20;;;;;;;;;;5040574;28;20316;-53
2022/01/15 13:08:28;;;;;;;8.30;4.32;;;;;;;;;;5040778;28;20231;-53
2022/01/15 13:11:03;;;;;;;18.70;4.43;;;;;;;;;;5037100;28;20053;-53
2022/01/15 13:13:34;;;;;;;9.88;4.53;;;;;;;;;;5040277;28;20033;-52
2022/01/15 13:16:19;;;;;;;10.20;4.53;;;;;;;;;;5042226;28;20392;-53
2022/01/15 13:18:50;;;;;;;11.00;4.40;;;;;;;;;;5038406;28;20025;-53
2022/01/15 13:21:20;;;;;;;14.07;4.45;;;;;;;;;;5044508;28;20041;-53
2022/01/15 13:23:50;;;;;;;10.13;3.83;;;;;;;;;;5039523;28;20104;-53
2022/01/15 13:26:21;;;;;;;14.13;4.80;;;;;;;;;;5035295;28;20036;-53
2022/01/15 13:28:46;;;;;;;11.13;4.60;;;;;;;;;;5035329;28;20025;-54
2022/01/15 13:31:12;;;;;;;10.68;4.30;;;;;;;;;;5038404;28;20794;-53
2022/01/15 13:33:46;;;;;;;19.20;4.72;;;;;;;;;;5040041;28;20577;-53
2022/01/15 13:36:16;;;;;;;12.80;4.53;;;;;;;;;;5034136;28;20044;-50
2022/01/15 13:38:45;;;;;;;12.23;3.50;;;;;;;;;;5038192;28;20555;-53
2022/01/15 13:41:24;;;;;;;15.35;4.45;;;;;;;;;;5039979;28;20060;-53
2022/01/15 13:43:55;;;;;;;8.82;3.92;;;;;;;;;;5039206;28;20063;-53
2022/01/15 13:46:28;;;;;;;7.80;4.13;;;;;;;;;;5035897;28;20123;-50
2022/01/15 13:48:59;;;;;;;14.95;4.43;;;;;;;;;;5039166;28;20566;-50
2022/01/15 13:54:14;;;;;;;17.60;5.68;;;;;;;;;;5036694;28;21380;-50
2022/01/15 13:56:51;;;;;;;12.07;4.60;;;;;;;;;;5042958;28;20579;-53
2022/01/15 13:59:18;;;;;;;14.63;5.60;;;;;;;;;;5040284;28;20033;-50
2022/01/15 14:01:51;;;;;;;12.48;4.55;;;;;;;;;;5045671;28;20044;-53
2022/01/15 14:04:34;;;;;;;13.82;5.85;;;;;;;;;;5034349;28;20128;-54
2022/01/15 14:07:05;;;;;;;8.35;4.03;;;;;;;;;;5036486;28;20031;-52
2022/01/15 14:09:35;;;;;;;13.65;3.80;;;;;;;;;;5032176;28;20029;-53
2022/01/15 14:12:08;;;;;;;15.18;4.50;;;;;;;;;;5039816;28;20032;-52
2022/01/15 14:14:59;;;;;;;9.73;3.63;;;;;;;;;;5036514;28;20025;-54
2022/01/15 14:17:27;;;;;;;13.80;4.33;;;;;;;;;;5037731;28;20025;-54
2022/01/15 14:23:05;;;;;;;8.23;3.63;;;;;;;;;;5038879;28;20114;-53
2022/01/15 14:25:31;;;;;;;;;;;;;;;;;;5037992;28;20040;-53
2022/01/15 14:28:03;;;;;;;10.15;3.63;;;;;;;;;;5027870;28;19925;-58
2022/01/15 14:30:28;;;;;;;9.48;3.55;;;;;;;;;;5063173;28;20449;-52
2022/01/15 14:32:54;;;;;;;18.35;4.30;;;;;;;;;;5037146;28;20044;-53
2022/01/15 14:35:23;;;;;;;9.05;3.70;;;;;;;;;;5035923;28;20044;-52
2022/01/15 14:37:49;;;;;;;6.90;3.63;;;;;;;;;;5036020;28;20033;-54
2022/01/15 14:40:16;;;;;;;15.40;4.32;;;;;;;;;;5037391;28;20094;-53
2022/01/15 14:42:41;;;;;;;10.40;4.20;;;;;;;;;;5038398;28;20040;-50